sensor_id;sensor_type;location;lat;lon;timestamp;pressure;altitude;pressure_sealevel;temperature;humidity
27685;BME280;46113;50.130;8.526;2023-04-19T00:00:47;99887.97;;;7.91;60.26
27685;BME280;46113;50.130;8.526;2023-04-19T00:03:13;99887.63;;;8.00;59.84
27685;BME280;46113;50.130;8.526;2023-04-19T00:05:41;99886.44;;;7.85;60.84
27685;BME280;46113;50.130;8.526;2023-04-19T00:08:08;99885.72;;;8.04;59.05
27685;BME280;46113;50.130;8.526;2023-04-19T00:10:35;99886.84;;;7.73;61.02
27685;BME280;46113;50.130;8.526;2023-04-19T00:13:02;99886.00;;;7.96;59.76
27685;BME280;46113;50.130;8.526;2023-04-19T00:15:28;99874.09;;;8.09;58.84
27685;BME280;46113;50.130;8.526;2023-04-19T00:17:56;99868.31;;;8.00;58.63
27685;BME280;46113;50.130;8.526;2023-04-19T00:20:23;99872.81;;;7.48;60.48
27685;BME280;46113;50.130;8.526;2023-04-19T00:22:49;99868.50;;;7.46;61.40
27685;BME280;46113;50.130;8.526;2023-04-19T00:25:16;99871.13;;;7.95;60.04
27685;BME280;46113;50.130;8.526;2023-04-19T00:27:43;99874.16;;;8.08;60.00
27685;BME280;46113;50.130;8.526;2023-04-19T00:30:10;99872.69;;;8.01;61.23
27685;BME280;46113;50.130;8.526;2023-04-19T00:32:37;99865.00;;;7.94;61.70
27685;BME280;46113;50.130;8.526;2023-04-19T00:35:04;99860.09;;;7.85;62.13
27685;BME280;46113;50.130;8.526;2023-04-19T00:37:31;99865.34;;;7.85;61.93
27685;BME280;46113;50.130;8.526;2023-04-19T00:39:57;99863.03;;;8.00;60.02
27685;BME280;46113;50.130;8.526;2023-04-19T00:42:25;99866.31;;;8.06;60.67
27685;BME280;46113;50.130;8.526;2023-04-19T00:44:51;99855.94;;;8.02;60.46
27685;BME280;46113;50.130;8.526;2023-04-19T00:47:18;99860.00;;;7.63;60.55
27685;BME280;46113;50.130;8.526;2023-04-19T00:49:45;99852.41;;;8.03;59.87
27685;BME280;46113;50.130;8.526;2023-04-19T00:52:14;99857.13;;;8.17;59.61
27685;BME280;46113;50.130;8.526;2023-04-19T00:54:42;99856.53;;;8.10;59.12
27685;BME280;46113;50.130;8.526;2023-04-19T00:57:11;99854.50;;;7.69;60.20
27685;BME280;46113;50.130;8.526;2023-04-19T00:59:38;99856.09;;;7.97;59.75
27685;BME280;46113;50.130;8.526;2023-04-19T01:02:06;99851.53;;;8.02;59.68
27685;BME280;46113;50.130;8.526;2023-04-19T01:04:32;99853.25;;;8.03;59.12
27685;BME280;46113;50.130;8.526;2023-04-19T01:07:00;99845.06;;;8.11;59.01
27685;BME280;46113;50.130;8.526;2023-04-19T01:09:27;99847.56;;;8.14;59.06
27685;BME280;46113;50.130;8.526;2023-04-19T01:11:56;99847.84;;;8.30;58.80
27685;BME280;46113;50.130;8.526;2023-04-19T01:14:22;99845.44;;;8.24;58.76
27685;BME280;46113;50.130;8.526;2023-04-19T01:16:49;99843.47;;;8.07;59.43
27685;BME280;46113;50.130;8.526;2023-04-19T01:19:16;99841.16;;;8.21;58.89
27685;BME280;46113;50.130;8.526;2023-04-19T01:21:43;99845.59;;;8.19;59.92
27685;BME280;46113;50.130;8.526;2023-04-19T01:24:11;99843.78;;;8.21;59.42
27685;BME280;46113;50.130;8.526;2023-04-19T01:26:39;99834.97;;;8.22;59.72
27685;BME280;46113;50.130;8.526;2023-04-19T01:29:06;99838.47;;;8.23;60.18
27685;BME280;46113;50.130;8.526;2023-04-19T01:31:33;99836.19;;;8.14;60.23
27685;BME280;46113;50.130;8.526;2023-04-19T01:34:02;99831.84;;;8.13;60.25
27685;BME280;46113;50.130;8.526;2023-04-19T01:36:29;99829.41;;;8.06;60.29
27685;BME280;46113;50.130;8.526;2023-04-19T01:38:56;99826.56;;;7.89;60.95
27685;BME280;46113;50.130;8.526;2023-04-19T01:41:23;99824.69;;;7.92;60.98
27685;BME280;46113;50.130;8.526;2023-04-19T01:47:25;99823.81;;;7.92;61.07
27685;BME280;46113;50.130;8.526;2023-04-19T01:49:52;99817.50;;;7.96;60.81
27685;BME280;46113;50.130;8.526;2023-04-19T01:52:19;99822.78;;;7.96;60.45
27685;BME280;46113;50.130;8.526;2023-04-19T01:54:46;99818.72;;;8.11;60.29
27685;BME280;46113;50.130;8.526;2023-04-19T01:57:14;99814.19;;;8.15;60.27
27685;BME280;46113;50.130;8.526;2023-04-19T01:59:42;99814.19;;;8.15;60.30
27685;BME280;46113;50.130;8.526;2023-04-19T02:02:08;99807.81;;;8.20;60.54
27685;BME280;46113;50.130;8.526;2023-04-19T02:04:37;99812.97;;;8.00;60.88
27685;BME280;46113;50.130;8.526;2023-04-19T02:07:04;99809.94;;;7.87;61.19
27685;BME280;46113;50.130;8.526;2023-04-19T02:09:34;99804.63;;;7.88;61.38
27685;BME280;46113;50.130;8.526;2023-04-19T02:12:02;99809.63;;;7.72;61.45
27685;BME280;46113;50.130;8.526;2023-04-19T02:14:30;99809.66;;;7.21;63.40
27685;BME280;46113;50.130;8.526;2023-04-19T02:16:57;99808.31;;;7.60;61.92
27685;BME280;46113;50.130;8.526;2023-04-19T02:19:24;99800.47;;;7.82;61.97
27685;BME280;46113;50.130;8.526;2023-04-19T02:21:50;99810.53;;;7.22;63.27
27685;BME280;46113;50.130;8.526;2023-04-19T02:24:19;99799.81;;;7.52;62.97
27685;BME280;46113;50.130;8.526;2023-04-19T02:26:45;99803.16;;;7.81;62.41
27685;BME280;46113;50.130;8.526;2023-04-19T02:29:13;99800.97;;;7.68;62.20
27685;BME280;46113;50.130;8.526;2023-04-19T02:31:42;99801.50;;;7.54;62.93
27685;BME280;46113;50.130;8.526;2023-04-19T02:34:11;99798.75;;;7.57;62.78
27685;BME280;46113;50.130;8.526;2023-04-19T02:36:38;99800.53;;;7.57;62.82
27685;BME280;46113;50.130;8.526;2023-04-19T02:39:04;99796.38;;;7.74;63.12
27685;BME280;46113;50.130;8.526;2023-04-19T02:41:31;99795.50;;;7.75;62.69
27685;BME280;46113;50.130;8.526;2023-04-19T02:44:00;99795.06;;;7.62;63.46
27685;BME280;46113;50.130;8.526;2023-04-19T02:46:27;99793.31;;;7.86;62.44
27685;BME280;46113;50.130;8.526;2023-04-19T02:48:54;99789.13;;;7.80;63.25
27685;BME280;46113;50.130;8.526;2023-04-19T02:51:20;99795.16;;;7.60;63.38
27685;BME280;46113;50.130;8.526;2023-04-19T02:53:47;99793.88;;;7.70;63.41
27685;BME280;46113;50.130;8.526;2023-04-19T02:56:14;99792.69;;;7.79;63.08
27685;BME280;46113;50.130;8.526;2023-04-19T02:58:42;99795.81;;;7.89;62.81
27685;BME280;46113;50.130;8.526;2023-04-19T03:01:09;99791.22;;;7.72;64.96
27685;BME280;46113;50.130;8.526;2023-04-19T03:03:36;99793.13;;;7.67;64.22
27685;BME280;46113;50.130;8.526;2023-04-19T03:06:03;99783.81;;;7.82;63.78
27685;BME280;46113;50.130;8.526;2023-04-19T03:08:31;99784.97;;;7.75;64.19
27685;BME280;46113;50.130;8.526;2023-04-19T03:10:58;99782.94;;;7.81;63.75
27685;BME280;46113;50.130;8.526;2023-04-19T03:13:25;99780.47;;;7.53;64.45
27685;BME280;46113;50.130;8.526;2023-04-19T03:15:51;99780.06;;;7.40;66.11
27685;BME280;46113;50.130;8.526;2023-04-19T03:18:21;99770.75;;;7.55;66.11
27685;BME280;46113;50.130;8.526;2023-04-19T03:20:49;99776.94;;;7.30;67.20
27685;BME280;46113;50.130;8.526;2023-04-19T03:23:16;99766.63;;;7.48;66.37
27685;BME280;46113;50.130;8.526;2023-04-19T03:25:44;99770.84;;;7.02;69.01
27685;BME280;46113;50.130;8.526;2023-04-19T03:28:21;99760.84;;;7.62;66.72
27685;BME280;46113;50.130;8.526;2023-04-19T03:31:09;99761.47;;;7.68;66.66
27685;BME280;46113;50.130;8.526;2023-04-19T03:33:36;99756.22;;;7.44;66.77
27685;BME280;46113;50.130;8.526;2023-04-19T03:36:03;99750.66;;;7.28;67.63
27685;BME280;46113;50.130;8.526;2023-04-19T03:38:30;99742.41;;;7.62;66.38
27685;BME280;46113;50.130;8.526;2023-04-19T03:40:58;99744.50;;;7.53;67.47
27685;BME280;46113;50.130;8.526;2023-04-19T03:43:28;99747.94;;;7.31;68.40
27685;BME280;46113;50.130;8.526;2023-04-19T03:45:55;99750.09;;;7.44;67.78
27685;BME280;46113;50.130;8.526;2023-04-19T03:48:22;99745.22;;;7.57;66.82
27685;BME280;46113;50.130;8.526;2023-04-19T03:50:49;99746.44;;;7.48;66.98
27685;BME280;46113;50.130;8.526;2023-04-19T03:53:17;99740.00;;;7.55;66.57
27685;BME280;46113;50.130;8.526;2023-04-19T03:55:44;99741.56;;;7.61;65.99
27685;BME280;46113;50.130;8.526;2023-04-19T03:58:11;99743.84;;;7.47;66.49
27685;BME280;46113;50.130;8.526;2023-04-19T04:00:46;99738.41;;;7.27;67.42
27685;BME280;46113;50.130;8.526;2023-04-19T04:03:14;99746.69;;;7.64;66.61
27685;BME280;46113;50.130;8.526;2023-04-19T04:05:41;99734.19;;;7.47;66.46
27685;BME280;46113;50.130;8.526;2023-04-19T04:08:08;99742.81;;;7.27;66.97
27685;BME280;46113;50.130;8.526;2023-04-19T04:10:35;99746.88;;;7.36;66.56
27685;BME280;46113;50.130;8.526;2023-04-19T04:13:02;99740.34;;;7.46;66.22
27685;BME280;46113;50.130;8.526;2023-04-19T04:15:38;99747.75;;;7.36;66.29
27685;BME280;46113;50.130;8.526;2023-04-19T04:18:06;99739.75;;;7.14;66.61
27685;BME280;46113;50.130;8.526;2023-04-19T04:20:34;99737.25;;;7.35;66.31
27685;BME280;46113;50.130;8.526;2023-04-19T04:23:05;99738.19;;;7.34;65.77
27685;BME280;46113;50.130;8.526;2023-04-19T04:25:33;99742.16;;;7.46;65.13
27685;BME280;46113;50.130;8.526;2023-04-19T04:28:06;99733.16;;;7.27;65.59
27685;BME280;46113;50.130;8.526;2023-04-19T04:30:32;99736.34;;;7.12;66.23
27685;BME280;46113;50.130;8.526;2023-04-19T04:33:01;99739.22;;;7.29;65.79
27685;BME280;46113;50.130;8.526;2023-04-19T04:35:28;99737.13;;;7.14;65.82
27685;BME280;46113;50.130;8.526;2023-04-19T04:38:04;99732.66;;;6.90;66.91
27685;BME280;46113;50.130;8.526;2023-04-19T04:40:50;99734.91;;;6.50;68.05
27685;BME280;46113;50.130;8.526;2023-04-19T04:43:23;99733.25;;;6.99;66.10
27685;BME280;46113;50.130;8.526;2023-04-19T04:45:51;99737.88;;;6.92;65.93
27685;BME280;46113;50.130;8.526;2023-04-19T04:48:22;99740.22;;;6.74;66.38
27685;BME280;46113;50.130;8.526;2023-04-19T04:50:48;99738.81;;;7.16;65.45
27685;BME280;46113;50.130;8.526;2023-04-19T04:53:16;99733.59;;;7.15;64.79
27685;BME280;46113;50.130;8.526;2023-04-19T04:55:44;99738.84;;;6.89;65.46
27685;BME280;46113;50.130;8.526;2023-04-19T04:58:13;99736.44;;;7.09;64.28
27685;BME280;46113;50.130;8.526;2023-04-19T05:01:02;99747.47;;;6.93;64.20
27685;BME280;46113;50.130;8.526;2023-04-19T05:03:34;99744.94;;;6.90;64.13
27685;BME280;46113;50.130;8.526;2023-04-19T05:06:04;99748.56;;;7.13;63.95
27685;BME280;46113;50.130;8.526;2023-04-19T05:08:31;99747.47;;;7.18;63.08
27685;BME280;46113;50.130;8.526;2023-04-19T05:11:11;99749.78;;;7.02;63.46
27685;BME280;46113;50.130;8.526;2023-04-19T05:13:38;99750.00;;;6.71;64.29
27685;BME280;46113;50.130;8.526;2023-04-19T05:16:05;99748.84;;;7.05;63.02
27685;BME280;46113;50.130;8.526;2023-04-19T05:18:33;99742.84;;;7.25;62.01
27685;BME280;46113;50.130;8.526;2023-04-19T05:21:00;99738.69;;;7.20;63.01
27685;BME280;46113;50.130;8.526;2023-04-19T05:23:30;99742.34;;;7.15;62.90
27685;BME280;46113;50.130;8.526;2023-04-19T05:25:57;99743.47;;;7.08;63.47
27685;BME280;46113;50.130;8.526;2023-04-19T05:28:26;99748.34;;;7.19;62.71
27685;BME280;46113;50.130;8.526;2023-04-19T05:31:05;99749.50;;;7.12;63.45
27685;BME280;46113;50.130;8.526;2023-04-19T05:33:38;99746.28;;;7.02;62.97
27685;BME280;46113;50.130;8.526;2023-04-19T05:36:06;99749.31;;;6.91;63.38
27685;BME280;46113;50.130;8.526;2023-04-19T05:38:33;99756.91;;;6.73;63.77
27685;BME280;46113;50.130;8.526;2023-04-19T05:41:02;99746.91;;;6.83;64.15
27685;BME280;46113;50.130;8.526;2023-04-19T05:43:29;99750.09;;;6.93;62.74
27685;BME280;46113;50.130;8.526;2023-04-19T05:45:56;99753.16;;;7.08;62.75
27685;BME280;46113;50.130;8.526;2023-04-19T05:48:24;99744.50;;;6.77;62.77
27685;BME280;46113;50.130;8.526;2023-04-19T05:51:28;99746.50;;;7.21;62.18
27685;BME280;46113;50.130;8.526;2023-04-19T05:54:02;99744.16;;;6.88;61.90
27685;BME280;46113;50.130;8.526;2023-04-19T05:56:29;99739.16;;;7.05;61.61
27685;BME280;46113;50.130;8.526;2023-04-19T06:02:56;99742.78;;;6.50;61.86
27685;BME280;46113;50.130;8.526;2023-04-19T06:05:23;99744.63;;;6.99;60.59
27685;BME280;46113;50.130;8.526;2023-04-19T06:07:51;99739.63;;;6.39;61.26
27685;BME280;46113;50.130;8.526;2023-04-19T06:10:25;99737.50;;;6.77;60.39
27685;BME280;46113;50.130;8.526;2023-04-19T06:13:02;99746.03;;;6.84;59.07
27685;BME280;46113;50.130;8.526;2023-04-19T06:19:06;99740.38;;;6.95;57.66
27685;BME280;46113;50.130;8.526;2023-04-19T06:21:33;99745.19;;;6.57;59.23
27685;BME280;46113;50.130;8.526;2023-04-19T06:24:00;99746.50;;;6.96;57.12
27685;BME280;46113;50.130;8.526;2023-04-19T06:26:27;99748.06;;;7.01;57.29
27685;BME280;46113;50.130;8.526;2023-04-19T06:28:54;99742.22;;;7.18;57.90
27685;BME280;46113;50.130;8.526;2023-04-19T06:31:21;99743.50;;;6.56;58.22
27685;BME280;46113;50.130;8.526;2023-04-19T06:33:48;99740.91;;;6.79;57.76
27685;BME280;46113;50.130;8.526;2023-04-19T06:36:15;99747.25;;;6.74;58.68
27685;BME280;46113;50.130;8.526;2023-04-19T06:38:42;99735.38;;;7.38;57.42
27685;BME280;46113;50.130;8.526;2023-04-19T06:41:10;99747.00;;;6.82;57.12
27685;BME280;46113;50.130;8.526;2023-04-19T06:43:37;99738.72;;;6.67;56.41
27685;BME280;46113;50.130;8.526;2023-04-19T06:46:06;99733.13;;;7.51;55.83
27685;BME280;46113;50.130;8.526;2023-04-19T06:48:34;99731.97;;;7.11;56.27
27685;BME280;46113;50.130;8.526;2023-04-19T06:51:01;99737.06;;;6.90;55.57
27685;BME280;46113;50.130;8.526;2023-04-19T06:53:28;99719.75;;;7.34;54.67
27685;BME280;46113;50.130;8.526;2023-04-19T06:55:57;99725.81;;;7.12;56.32
27685;BME280;46113;50.130;8.526;2023-04-19T06:58:26;99715.75;;;7.23;55.58
27685;BME280;46113;50.130;8.526;2023-04-19T07:00:53;99719.97;;;7.97;52.94
27685;BME280;46113;50.130;8.526;2023-04-19T07:03:20;99727.97;;;8.39;52.38
27685;BME280;46113;50.130;8.526;2023-04-19T07:05:47;99721.03;;;8.36;52.17
27685;BME280;46113;50.130;8.526;2023-04-19T07:08:14;99722.84;;;8.58;51.77
27685;BME280;46113;50.130;8.526;2023-04-19T07:10:41;99718.28;;;8.40;51.71
27685;BME280;46113;50.130;8.526;2023-04-19T07:13:10;99713.72;;;8.22;54.17
27685;BME280;46113;50.130;8.526;2023-04-19T07:15:37;99713.66;;;8.88;51.57
27685;BME280;46113;50.130;8.526;2023-04-19T07:18:04;99721.09;;;8.57;50.72
27685;BME280;46113;50.130;8.526;2023-04-19T07:20:32;99708.47;;;8.66;51.49
27685;BME280;46113;50.130;8.526;2023-04-19T07:22:59;99719.13;;;8.62;50.38
27685;BME280;46113;50.130;8.526;2023-04-19T07:25:26;99719.53;;;8.95;49.28
27685;BME280;46113;50.130;8.526;2023-04-19T07:28:13;99709.00;;;8.53;50.42
27685;BME280;46113;50.130;8.526;2023-04-19T07:30:41;99703.16;;;9.07;50.34
27685;BME280;46113;50.130;8.526;2023-04-19T07:33:13;99703.13;;;8.67;49.39
27685;BME280;46113;50.130;8.526;2023-04-19T07:35:40;99691.75;;;9.26;49.76
27685;BME280;46113;50.130;8.526;2023-04-19T07:38:07;99696.53;;;9.94;48.14
27685;BME280;46113;50.130;8.526;2023-04-19T07:40:34;99693.31;;;10.25;47.28
27685;BME280;46113;50.130;8.526;2023-04-19T07:43:01;99692.31;;;10.62;45.87
27685;BME280;46113;50.130;8.526;2023-04-19T07:45:29;99684.31;;;10.64;45.18
27685;BME280;46113;50.130;8.526;2023-04-19T07:47:56;99688.16;;;10.58;46.44
27685;BME280;46113;50.130;8.526;2023-04-19T07:50:25;99693.25;;;10.97;45.96
27685;BME280;46113;50.130;8.526;2023-04-19T07:57:18;99705.41;;;8.96;46.64
27685;BME280;46113;50.130;8.526;2023-04-19T07:59:45;99704.88;;;8.87;47.32
27685;BME280;46113;50.130;8.526;2023-04-19T08:02:12;99696.25;;;8.84;46.87
27685;BME280;46113;50.130;8.526;2023-04-19T08:04:39;99698.44;;;8.95;47.50
27685;BME280;46113;50.130;8.526;2023-04-19T08:07:07;99693.94;;;8.97;46.79
27685;BME280;46113;50.130;8.526;2023-04-19T08:09:35;99709.25;;;8.45;47.64
27685;BME280;46113;50.130;8.526;2023-04-19T08:12:03;99695.16;;;8.69;47.51
27685;BME280;46113;50.130;8.526;2023-04-19T08:14:30;99694.22;;;9.10;46.31
27685;BME280;46113;50.130;8.526;2023-04-19T08:17:13;99694.34;;;8.67;47.30
27685;BME280;46113;50.130;8.526;2023-04-19T08:23:02;99698.69;;;9.09;47.23
27685;BME280;46113;50.130;8.526;2023-04-19T08:25:46;99691.84;;;9.82;45.38
27685;BME280;46113;50.130;8.526;2023-04-19T08:28:13;99699.41;;;9.51;45.69
27685;BME280;46113;50.130;8.526;2023-04-19T08:30:40;99707.50;;;9.08;46.42
27685;BME280;46113;50.130;8.526;2023-04-19T08:33:06;99714.59;;;9.46;45.16
27685;BME280;46113;50.130;8.526;2023-04-19T08:35:34;99708.19;;;9.33;45.13
27685;BME280;46113;50.130;8.526;2023-04-19T08:38:01;99712.94;;;9.84;45.10
27685;BME280;46113;50.130;8.526;2023-04-19T08:40:30;99719.47;;;9.75;45.70
27685;BME280;46113;50.130;8.526;2023-04-19T08:42:57;99706.91;;;9.99;44.33
27685;BME280;46113;50.130;8.526;2023-04-19T08:45:27;99717.69;;;8.76;46.15
27685;BME280;46113;50.130;8.526;2023-04-19T08:47:56;99713.53;;;9.31;46.58
27685;BME280;46113;50.130;8.526;2023-04-19T08:50:28;99713.97;;;9.01;46.34
27685;BME280;46113;50.130;8.526;2023-04-19T08:52:58;99712.81;;;8.67;46.39
27685;BME280;46113;50.130;8.526;2023-04-19T08:55:46;99708.84;;;8.77;46.54
27685;BME280;46113;50.130;8.526;2023-04-19T08:58:33;99688.31;;;9.24;45.57
27685;BME280;46113;50.130;8.526;2023-04-19T09:01:22;99692.56;;;8.88;46.46
27685;BME280;46113;50.130;8.526;2023-04-19T09:04:02;99684.69;;;9.26;46.49
27685;BME280;46113;50.130;8.526;2023-04-19T09:06:51;99693.50;;;9.65;44.67
27685;BME280;46113;50.130;8.526;2023-04-19T09:09:20;99689.88;;;9.09;44.97
27685;BME280;46113;50.130;8.526;2023-04-19T09:11:50;99699.25;;;8.95;45.55
27685;BME280;46113;50.130;8.526;2023-04-19T09:14:18;99688.06;;;8.48;45.93
27685;BME280;46113;50.130;8.526;2023-04-19T09:16:45;99683.03;;;9.05;44.86
27685;BME280;46113;50.130;8.526;2023-04-19T09:19:12;99685.50;;;8.68;46.02
27685;BME280;46113;50.130;8.526;2023-04-19T09:21:49;99690.78;;;8.47;45.74
27685;BME280;46113;50.130;8.526;2023-04-19T09:24:18;99685.81;;;8.81;45.89
27685;BME280;46113;50.130;8.526;2023-04-19T09:26:55;99673.63;;;8.99;45.70
27685;BME280;46113;50.130;8.526;2023-04-19T09:29:23;99682.63;;;9.33;46.52
27685;BME280;46113;50.130;8.526;2023-04-19T09:31:57;99681.09;;;8.68;45.92
27685;BME280;46113;50.130;8.526;2023-04-19T09:34:24;99664.22;;;8.72;46.70
27685;BME280;46113;50.130;8.526;2023-04-19T09:36:53;99667.53;;;8.97;46.49
27685;BME280;46113;50.130;8.526;2023-04-19T09:39:38;99675.09;;;9.45;45.56
27685;BME280;46113;50.130;8.526;2023-04-19T09:42:05;99685.34;;;9.70;44.81
27685;BME280;46113;50.130;8.526;2023-04-19T09:44:32;99676.94;;;9.42;44.06
27685;BME280;46113;50.130;8.526;2023-04-19T09:47:24;99671.00;;;9.18;44.70
27685;BME280;46113;50.130;8.526;2023-04-19T09:52:48;99664.16;;;9.52;44.63
27685;BME280;46113;50.130;8.526;2023-04-19T09:55:16;99649.09;;;9.35;45.13
27685;BME280;46113;50.130;8.526;2023-04-19T09:57:47;99646.00;;;9.64;43.75
27685;BME280;46113;50.130;8.526;2023-04-19T10:00:14;99645.88;;;9.48;43.54
27685;BME280;46113;50.130;8.526;2023-04-19T10:02:41;99656.03;;;8.79;43.42
27685;BME280;46113;50.130;8.526;2023-04-19T10:05:09;99636.50;;;8.83;44.33
27685;BME280;46113;50.130;8.526;2023-04-19T10:07:48;99644.59;;;8.99;43.88
27685;BME280;46113;50.130;8.526;2023-04-19T10:10:16;99642.25;;;9.31;42.33
27685;BME280;46113;50.130;8.526;2023-04-19T10:12:50;99634.53;;;9.07;42.82
27685;BME280;46113;50.130;8.526;2023-04-19T10:15:22;99635.88;;;9.16;42.96
27685;BME280;46113;50.130;8.526;2023-04-19T10:17:50;99629.81;;;9.33;43.09
27685;BME280;46113;50.130;8.526;2023-04-19T10:23:27;99619.97;;;8.79;41.05
27685;BME280;46113;50.130;8.526;2023-04-19T10:25:59;99638.00;;;8.88;40.87
27685;BME280;46113;50.130;8.526;2023-04-19T10:28:29;99619.84;;;9.01;42.18
27685;BME280;46113;50.130;8.526;2023-04-19T10:31:01;99630.66;;;8.95;41.14
27685;BME280;46113;50.130;8.526;2023-04-19T10:33:33;99638.03;;;9.08;39.97
27685;BME280;46113;50.130;8.526;2023-04-19T10:36:01;99639.44;;;8.96;39.46
27685;BME280;46113;50.130;8.526;2023-04-19T10:38:39;99606.00;;;9.15;38.49
27685;BME280;46113;50.130;8.526;2023-04-19T10:41:10;99611.78;;;9.05;39.15
27685;BME280;46113;50.130;8.526;2023-04-19T10:43:46;99609.00;;;9.27;39.10
27685;BME280;46113;50.130;8.526;2023-04-19T10:46:14;99613.97;;;9.33;38.94
27685;BME280;46113;50.130;8.526;2023-04-19T10:48:58;99608.13;;;9.07;38.93
27685;BME280;46113;50.130;8.526;2023-04-19T10:51:27;99604.81;;;9.60;38.16
27685;BME280;46113;50.130;8.526;2023-04-19T11:01:33;99600.06;;;8.91;36.26
27685;BME280;46113;50.130;8.526;2023-04-19T11:04:02;99616.41;;;9.38;37.50
27685;BME280;46113;50.130;8.526;2023-04-19T11:06:31;99599.22;;;8.71;35.53
27685;BME280;46113;50.130;8.526;2023-04-19T11:08:58;99595.06;;;8.66;35.59
27685;BME280;46113;50.130;8.526;2023-04-19T11:11:26;99589.50;;;8.72;36.83
27685;BME280;46113;50.130;8.526;2023-04-19T11:13:56;99588.72;;;8.89;34.69
27685;BME280;46113;50.130;8.526;2023-04-19T11:16:25;99586.59;;;9.16;34.25
27685;BME280;46113;50.130;8.526;2023-04-19T11:19:17;99570.34;;;9.07;34.57
27685;BME280;46113;50.130;8.526;2023-04-19T11:21:46;99581.03;;;9.03;33.74
27685;BME280;46113;50.130;8.526;2023-04-19T11:24:13;99572.34;;;9.21;34.03
27685;BME280;46113;50.130;8.526;2023-04-19T11:26:42;99568.19;;;8.96;33.01
27685;BME280;46113;50.130;8.526;2023-04-19T11:29:11;99552.59;;;9.10;33.68
27685;BME280;46113;50.130;8.526;2023-04-19T11:31:39;99553.34;;;9.12;32.80
27685;BME280;46113;50.130;8.526;2023-04-19T11:34:06;99569.59;;;9.41;32.66
27685;BME280;46113;50.130;8.526;2023-04-19T11:36:33;99548.50;;;9.22;31.34
27685;BME280;46113;50.130;8.526;2023-04-19T11:39:05;99557.88;;;9.10;31.89
27685;BME280;46113;50.130;8.526;2023-04-19T11:41:38;99582.91;;;9.01;31.89
27685;BME280;46113;50.130;8.526;2023-04-19T11:44:13;99557.66;;;8.96;31.34
27685;BME280;46113;50.130;8.526;2023-04-19T11:46:41;99562.97;;;8.56;29.81
27685;BME280;46113;50.130;8.526;2023-04-19T11:49:08;99551.34;;;8.60;29.43
27685;BME280;46113;50.130;8.526;2023-04-19T11:51:40;99547.66;;;8.83;28.60
27685;BME280;46113;50.130;8.526;2023-04-19T11:54:13;99563.41;;;8.45;29.10
27685;BME280;46113;50.130;8.526;2023-04-19T11:57:08;99531.91;;;8.82;31.00
27685;BME280;46113;50.130;8.526;2023-04-19T11:59:35;99537.13;;;9.02;29.32
27685;BME280;46113;50.130;8.526;2023-04-19T12:02:10;99554.97;;;8.57;27.81
27685;BME280;46113;50.130;8.526;2023-04-19T12:04:38;99547.59;;;9.04;28.89
27685;BME280;46113;50.130;8.526;2023-04-19T12:07:05;99531.06;;;9.37;29.84
27685;BME280;46113;50.130;8.526;2023-04-19T12:09:33;99550.06;;;9.26;28.10
27685;BME280;46113;50.130;8.526;2023-04-19T12:12:01;99533.88;;;9.34;28.06
27685;BME280;46113;50.130;8.526;2023-04-19T12:14:28;99526.91;;;8.95;28.35
27685;BME280;46113;50.130;8.526;2023-04-19T12:17:22;99520.34;;;9.03;29.06
27685;BME280;46113;50.130;8.526;2023-04-19T12:23:06;99542.22;;;9.25;28.01
27685;BME280;46113;50.130;8.526;2023-04-19T12:25:36;99506.84;;;9.10;26.87
27685;BME280;46113;50.130;8.526;2023-04-19T12:28:03;99509.66;;;9.07;27.49
27685;BME280;46113;50.130;8.526;2023-04-19T12:30:30;99507.97;;;9.23;28.24
27685;BME280;46113;50.130;8.526;2023-04-19T12:32:58;99510.44;;;9.63;27.58
27685;BME280;46113;50.130;8.526;2023-04-19T12:35:25;99508.09;;;9.57;27.61
27685;BME280;46113;50.130;8.526;2023-04-19T12:37:56;99512.75;;;9.34;27.31
27685;BME280;46113;50.130;8.526;2023-04-19T12:40:24;99513.25;;;9.23;28.28
27685;BME280;46113;50.130;8.526;2023-04-19T12:42:52;99523.56;;;9.10;27.04
27685;BME280;46113;50.130;8.526;2023-04-19T12:45:19;99517.16;;;8.77;26.77
27685;BME280;46113;50.130;8.526;2023-04-19T12:47:47;99511.16;;;8.93;27.59
27685;BME280;46113;50.130;8.526;2023-04-19T12:50:15;99503.81;;;9.00;27.09
27685;BME280;46113;50.130;8.526;2023-04-19T12:52:43;99506.66;;;9.14;27.58
27685;BME280;46113;50.130;8.526;2023-04-19T12:55:10;99507.53;;;8.76;27.17
27685;BME280;46113;50.130;8.526;2023-04-19T12:57:37;99511.06;;;8.75;28.55
27685;BME280;46113;50.130;8.526;2023-04-19T13:00:05;99495.16;;;9.15;29.77
27685;BME280;46113;50.130;8.526;2023-04-19T13:02:33;99508.00;;;8.66;28.21
27685;BME280;46113;50.130;8.526;2023-04-19T13:05:01;99495.84;;;9.19;29.31
27685;BME280;46113;50.130;8.526;2023-04-19T13:07:28;99496.72;;;9.00;28.39
27685;BME280;46113;50.130;8.526;2023-04-19T13:09:54;99492.59;;;9.14;28.26
27685;BME280;46113;50.130;8.526;2023-04-19T13:12:22;99500.13;;;9.22;28.15
27685;BME280;46113;50.130;8.526;2023-04-19T13:14:49;99499.47;;;8.99;28.67
27685;BME280;46113;50.130;8.526;2023-04-19T13:17:18;99499.31;;;9.02;28.17
27685;BME280;46113;50.130;8.526;2023-04-19T13:19:45;99499.16;;;9.05;28.55
27685;BME280;46113;50.130;8.526;2023-04-19T13:22:12;99497.09;;;8.73;28.02
27685;BME280;46113;50.130;8.526;2023-04-19T13:24:39;99490.63;;;9.00;29.13
27685;BME280;46113;50.130;8.526;2023-04-19T13:27:06;99507.47;;;9.15;29.26
27685;BME280;46113;50.130;8.526;2023-04-19T13:29:34;99493.44;;;8.95;28.68
27685;BME280;46113;50.130;8.526;2023-04-19T13:32:01;99489.88;;;9.15;29.14
27685;BME280;46113;50.130;8.526;2023-04-19T13:34:28;99497.53;;;9.02;28.33
27685;BME280;46113;50.130;8.526;2023-04-19T13:36:55;99495.03;;;8.99;29.27
27685;BME280;46113;50.130;8.526;2023-04-19T13:39:23;99488.91;;;8.60;29.79
27685;BME280;46113;50.130;8.526;2023-04-19T13:41:50;99471.91;;;9.05;29.56
27685;BME280;46113;50.130;8.526;2023-04-19T13:44:17;99486.34;;;8.97;29.55
27685;BME280;46113;50.130;8.526;2023-04-19T13:46:44;99483.97;;;9.28;30.10
27685;BME280;46113;50.130;8.526;2023-04-19T13:49:12;99469.31;;;9.22;29.97
27685;BME280;46113;50.130;8.526;2023-04-19T13:51:39;99478.16;;;8.84;30.33
27685;BME280;46113;50.130;8.526;2023-04-19T13:54:15;99454.09;;;8.90;30.48
27685;BME280;46113;50.130;8.526;2023-04-19T13:56:44;99456.50;;;8.95;30.83